sensor_id;sensor_type;location;lat;lon;timestamp;temperature;humidity
32660;DHT22;19064;47.912;12.308;2023-05-29T00:02:00;12.70;99.90
32660;DHT22;19064;47.912;12.308;2023-05-29T00:04:26;12.80;99.90
32660;DHT22;19064;47.912;12.308;2023-05-29T00:06:53;12.70;99.90
32660;DHT22;19064;47.912;12.308;2023-05-29T00:09:20;12.70;99.90
32660;DHT22;19064;47.912;12.308;2023-05-29T00:11:47;12.50;99.90
32660;DHT22;19064;47.912;12.308;2023-05-29T00:14:18;12.60;99.90
32660;DHT22;19064;47.912;12.308;2023-05-29T00:16:46;12.50;99.90
32660;DHT22;19064;47.912;12.308;2023-05-29T00:19:14;12.40;99.90
32660;DHT22;19064;47.912;12.308;2023-05-29T00:21:42;12.30;99.90
32660;DHT22;19064;47.912;12.308;2023-05-29T00:24:09;12.30;99.90
32660;DHT22;19064;47.912;12.308;2023-05-29T00:26:36;12.40;99.90
32660;DHT22;19064;47.912;12.308;2023-05-29T00:29:02;12.30;99.90
32660;DHT22;19064;47.912;12.308;2023-05-29T00:31:30;12.30;99.90
32660;DHT22;19064;47.912;12.308;2023-05-29T00:33:57;12.30;99.90
32660;DHT22;19064;47.912;12.308;2023-05-29T00:36:24;12.40;99.90
32660;DHT22;19064;47.912;12.308;2023-05-29T00:38:51;12.40;99.90
32660;DHT22;19064;47.912;12.308;2023-05-29T00:41:18;12.30;99.90
32660;DHT22;19064;47.912;12.308;2023-05-29T00:43:44;12.20;99.90
32660;DHT22;19064;47.912;12.308;2023-05-29T00:46:13;12.20;99.90
32660;DHT22;19064;47.912;12.308;2023-05-29T00:48:41;12.30;99.90
32660;DHT22;19064;47.912;12.308;2023-05-29T00:51:09;12.40;99.90
32660;DHT22;19064;47.912;12.308;2023-05-29T00:53:38;12.30;99.90
32660;DHT22;19064;47.912;12.308;2023-05-29T00:56:06;12.50;99.90
32660;DHT22;19064;47.912;12.308;2023-05-29T00:58:33;12.40;99.90
32660;DHT22;19064;47.912;12.308;2023-05-29T01:01:01;12.30;99.90
32660;DHT22;19064;47.912;12.308;2023-05-29T01:03:28;12.20;99.90
32660;DHT22;19064;47.912;12.308;2023-05-29T01:05:59;12.00;99.90
32660;DHT22;19064;47.912;12.308;2023-05-29T01:08:26;12.10;99.90
32660;DHT22;19064;47.912;12.308;2023-05-29T01:10:56;12.10;99.90
32660;DHT22;19064;47.912;12.308;2023-05-29T01:13:29;11.90;99.90
32660;DHT22;19064;47.912;12.308;2023-05-29T01:16:01;11.80;99.90
32660;DHT22;19064;47.912;12.308;2023-05-29T01:18:37;11.90;99.90
32660;DHT22;19064;47.912;12.308;2023-05-29T01:21:12;11.80;99.90
32660;DHT22;19064;47.912;12.308;2023-05-29T01:23:52;11.80;99.90
32660;DHT22;19064;47.912;12.308;2023-05-29T01:26:31;11.80;99.90
32660;DHT22;19064;47.912;12.308;2023-05-29T01:29:02;11.60;99.90
32660;DHT22;19064;47.912;12.308;2023-05-29T01:31:30;11.50;99.90
32660;DHT22;19064;47.912;12.308;2023-05-29T01:33:58;11.40;99.90
32660;DHT22;19064;47.912;12.308;2023-05-29T01:36:26;11.30;99.90
32660;DHT22;19064;47.912;12.308;2023-05-29T01:38:55;11.30;99.90
32660;DHT22;19064;47.912;12.308;2023-05-29T01:41:23;11.20;99.90
32660;DHT22;19064;47.912;12.308;2023-05-29T01:43:52;11.20;99.90
32660;DHT22;19064;47.912;12.308;2023-05-29T01:46:20;11.20;99.90
32660;DHT22;19064;47.912;12.308;2023-05-29T01:48:47;11.20;99.90
32660;DHT22;19064;47.912;12.308;2023-05-29T01:51:14;11.10;99.90
32660;DHT22;19064;47.912;12.308;2023-05-29T01:53:42;11.10;99.90
32660;DHT22;19064;47.912;12.308;2023-05-29T01:56:10;11.10;99.90
32660;DHT22;19064;47.912;12.308;2023-05-29T01:58:38;11.10;99.90
32660;DHT22;19064;47.912;12.308;2023-05-29T02:01:07;11.30;99.90
32660;DHT22;19064;47.912;12.308;2023-05-29T02:03:34;11.50;99.90
32660;DHT22;19064;47.912;12.308;2023-05-29T02:06:01;11.40;99.90
32660;DHT22;19064;47.912;12.308;2023-05-29T02:08:28;11.40;99.90
32660;DHT22;19064;47.912;12.308;2023-05-29T02:10:55;11.30;99.90
32660;DHT22;19064;47.912;12.308;2023-05-29T02:13:21;11.20;99.90
32660;DHT22;19064;47.912;12.308;2023-05-29T02:15:48;11.20;99.90
32660;DHT22;19064;47.912;12.308;2023-05-29T02:18:16;11.20;99.90
32660;DHT22;19064;47.912;12.308;2023-05-29T02:20:44;11.10;99.90
32660;DHT22;19064;47.912;12.308;2023-05-29T02:23:12;11.10;99.90
32660;DHT22;19064;47.912;12.308;2023-05-29T02:25:40;11.10;99.90
32660;DHT22;19064;47.912;12.308;2023-05-29T02:28:07;11.20;99.90
32660;DHT22;19064;47.912;12.308;2023-05-29T02:30:34;11.40;99.90
32660;DHT22;19064;47.912;12.308;2023-05-29T02:33:01;11.50;99.90
32660;DHT22;19064;47.912;12.308;2023-05-29T02:35:30;11.60;99.90
32660;DHT22;19064;47.912;12.308;2023-05-29T02:37:56;11.70;99.90
32660;DHT22;19064;47.912;12.308;2023-05-29T02:40:23;11.70;99.90
32660;DHT22;19064;47.912;12.308;2023-05-29T02:42:50;11.80;99.90
32660;DHT22;19064;47.912;12.308;2023-05-29T02:45:17;11.70;99.90
32660;DHT22;19064;47.912;12.308;2023-05-29T02:47:44;11.80;99.90
32660;DHT22;19064;47.912;12.308;2023-05-29T02:50:11;11.80;99.90
32660;DHT22;19064;47.912;12.308;2023-05-29T02:52:41;11.90;99.90
32660;DHT22;19064;47.912;12.308;2023-05-29T02:55:08;11.80;99.90
32660;DHT22;19064;47.912;12.308;2023-05-29T02:57:35;11.70;99.90
32660;DHT22;19064;47.912;12.308;2023-05-29T03:00:02;11.60;99.90
32660;DHT22;19064;47.912;12.308;2023-05-29T03:02:32;11.40;99.90
32660;DHT22;19064;47.912;12.308;2023-05-29T03:04:59;11.30;99.90
32660;DHT22;19064;47.912;12.308;2023-05-29T03:07:26;11.30;99.90
32660;DHT22;19064;47.912;12.308;2023-05-29T03:09:54;11.40;99.90
32660;DHT22;19064;47.912;12.308;2023-05-29T03:12:20;11.30;99.90
32660;DHT22;19064;47.912;12.308;2023-05-29T03:14:47;11.20;99.90
32660;DHT22;19064;47.912;12.308;2023-05-29T03:17:14;11.20;99.90
32660;DHT22;19064;47.912;12.308;2023-05-29T03:19:42;11.30;99.90
32660;DHT22;19064;47.912;12.308;2023-05-29T03:22:08;11.30;99.90
32660;DHT22;19064;47.912;12.308;2023-05-29T03:24:35;11.20;99.90
32660;DHT22;19064;47.912;12.308;2023-05-29T03:27:03;11.30;99.90
32660;DHT22;19064;47.912;12.308;2023-05-29T03:29:31;11.40;99.90
32660;DHT22;19064;47.912;12.308;2023-05-29T03:31:58;11.20;99.90
32660;DHT22;19064;47.912;12.308;2023-05-29T03:34:25;11.00;99.90
32660;DHT22;19064;47.912;12.308;2023-05-29T03:36:52;11.10;99.90
32660;DHT22;19064;47.912;12.308;2023-05-29T03:39:19;11.10;99.90
32660;DHT22;19064;47.912;12.308;2023-05-29T03:41:45;11.20;99.90
32660;DHT22;19064;47.912;12.308;2023-05-29T03:44:13;11.40;99.90
32660;DHT22;19064;47.912;12.308;2023-05-29T03:46:40;11.40;99.90
32660;DHT22;19064;47.912;12.308;2023-05-29T03:49:07;11.50;99.90
32660;DHT22;19064;47.912;12.308;2023-05-29T03:51:34;11.60;99.90
32660;DHT22;19064;47.912;12.308;2023-05-29T03:54:01;11.50;99.90
32660;DHT22;19064;47.912;12.308;2023-05-29T03:56:28;11.50;99.90
32660;DHT22;19064;47.912;12.308;2023-05-29T03:58:55;11.40;99.90
32660;DHT22;19064;47.912;12.308;2023-05-29T04:01:23;11.50;99.90
32660;DHT22;19064;47.912;12.308;2023-05-29T04:03:50;11.40;99.90
32660;DHT22;19064;47.912;12.308;2023-05-29T04:06:17;11.20;99.90
32660;DHT22;19064;47.912;12.308;2023-05-29T04:08:44;11.30;99.90
32660;DHT22;19064;47.912;12.308;2023-05-29T04:11:10;11.50;99.90
32660;DHT22;19064;47.912;12.308;2023-05-29T04:13:39;11.60;99.90
32660;DHT22;19064;47.912;12.308;2023-05-29T04:16:06;11.50;99.90
32660;DHT22;19064;47.912;12.308;2023-05-29T04:18:34;11.50;99.90
32660;DHT22;19064;47.912;12.308;2023-05-29T04:21:01;11.40;99.90
32660;DHT22;19064;47.912;12.308;2023-05-29T04:23:28;11.40;99.90
32660;DHT22;19064;47.912;12.308;2023-05-29T04:25:55;11.50;99.90
32660;DHT22;19064;47.912;12.308;2023-05-29T04:28:21;11.70;99.90
32660;DHT22;19064;47.912;12.308;2023-05-29T04:30:50;11.70;99.90
32660;DHT22;19064;47.912;12.308;2023-05-29T04:33:21;11.90;99.90
32660;DHT22;19064;47.912;12.308;2023-05-29T04:35:50;12.00;99.90
32660;DHT22;19064;47.912;12.308;2023-05-29T04:38:18;12.00;99.90
32660;DHT22;19064;47.912;12.308;2023-05-29T04:40:50;12.00;99.90
32660;DHT22;19064;47.912;12.308;2023-05-29T04:43:17;12.20;99.90
32660;DHT22;19064;47.912;12.308;2023-05-29T04:45:44;12.40;99.90
32660;DHT22;19064;47.912;12.308;2023-05-29T04:48:11;12.70;99.90
32660;DHT22;19064;47.912;12.308;2023-05-29T04:50:37;12.80;99.90
32660;DHT22;19064;47.912;12.308;2023-05-29T04:53:05;12.90;99.90
32660;DHT22;19064;47.912;12.308;2023-05-29T04:55:32;12.90;99.90
32660;DHT22;19064;47.912;12.308;2023-05-29T04:57:59;12.90;99.90
32660;DHT22;19064;47.912;12.308;2023-05-29T05:00:26;13.00;99.90
32660;DHT22;19064;47.912;12.308;2023-05-29T05:02:53;13.10;99.90
32660;DHT22;19064;47.912;12.308;2023-05-29T05:05:20;13.00;99.90
32660;DHT22;19064;47.912;12.308;2023-05-29T05:07:47;13.00;99.90
32660;DHT22;19064;47.912;12.308;2023-05-29T05:10:18;13.10;99.90
32660;DHT22;19064;47.912;12.308;2023-05-29T05:12:44;13.30;99.90
32660;DHT22;19064;47.912;12.308;2023-05-29T05:15:12;13.40;99.90
32660;DHT22;19064;47.912;12.308;2023-05-29T05:17:38;13.40;99.90
32660;DHT22;19064;47.912;12.308;2023-05-29T05:20:06;13.40;99.90
32660;DHT22;19064;47.912;12.308;2023-05-29T05:22:34;13.30;99.90
32660;DHT22;19064;47.912;12.308;2023-05-29T05:25:00;13.40;99.90
32660;DHT22;19064;47.912;12.308;2023-05-29T05:27:30;13.50;99.90
32660;DHT22;19064;47.912;12.308;2023-05-29T05:29:57;13.50;99.90
32660;DHT22;19064;47.912;12.308;2023-05-29T05:32:24;13.70;99.90
32660;DHT22;19064;47.912;12.308;2023-05-29T05:34:51;13.70;99.90
32660;DHT22;19064;47.912;12.308;2023-05-29T05:37:18;13.80;99.90
32660;DHT22;19064;47.912;12.308;2023-05-29T05:39:45;13.80;99.90
32660;DHT22;19064;47.912;12.308;2023-05-29T05:42:12;13.90;99.90
32660;DHT22;19064;47.912;12.308;2023-05-29T05:44:40;14.00;99.90
32660;DHT22;19064;47.912;12.308;2023-05-29T05:47:07;14.00;99.90
32660;DHT22;19064;47.912;12.308;2023-05-29T05:49:34;14.10;99.90
32660;DHT22;19064;47.912;12.308;2023-05-29T05:52:00;14.10;99.90
32660;DHT22;19064;47.912;12.308;2023-05-29T05:54:27;14.20;99.90
32660;DHT22;19064;47.912;12.308;2023-05-29T05:56:54;14.30;99.90
32660;DHT22;19064;47.912;12.308;2023-05-29T05:59:20;14.30;99.90
32660;DHT22;19064;47.912;12.308;2023-05-29T06:01:49;14.40;99.90
32660;DHT22;19064;47.912;12.308;2023-05-29T06:04:15;14.40;99.90
32660;DHT22;19064;47.912;12.308;2023-05-29T06:06:42;14.50;99.90
32660;DHT22;19064;47.912;12.308;2023-05-29T06:09:09;14.60;99.90
32660;DHT22;19064;47.912;12.308;2023-05-29T06:11:36;14.60;99.90
32660;DHT22;19064;47.912;12.308;2023-05-29T06:14:04;14.60;99.90
32660;DHT22;19064;47.912;12.308;2023-05-29T06:16:30;14.70;99.90
32660;DHT22;19064;47.912;12.308;2023-05-29T06:18:59;14.70;99.90
32660;DHT22;19064;47.912;12.308;2023-05-29T06:21:26;14.70;99.90
32660;DHT22;19064;47.912;12.308;2023-05-29T06:23:53;14.70;99.90
32660;DHT22;19064;47.912;12.308;2023-05-29T06:26:20;14.80;99.90
32660;DHT22;19064;47.912;12.308;2023-05-29T06:28:47;14.90;99.90
32660;DHT22;19064;47.912;12.308;2023-05-29T06:31:14;14.90;99.90
32660;DHT22;19064;47.912;12.308;2023-05-29T06:33:40;14.90;99.90
32660;DHT22;19064;47.912;12.308;2023-05-29T06:36:09;15.00;99.90
32660;DHT22;19064;47.912;12.308;2023-05-29T06:38:36;15.10;99.90
32660;DHT22;19064;47.912;12.308;2023-05-29T06:41:03;15.30;99.90
32660;DHT22;19064;47.912;12.308;2023-05-29T06:43:30;15.30;99.90
32660;DHT22;19064;47.912;12.308;2023-05-29T06:45:57;15.40;99.90
32660;DHT22;19064;47.912;12.308;2023-05-29T06:48:24;15.40;99.90
32660;DHT22;19064;47.912;12.308;2023-05-29T06:50:51;15.50;99.90
32660;DHT22;19064;47.912;12.308;2023-05-29T06:53:19;15.70;99.90
32660;DHT22;19064;47.912;12.308;2023-05-29T06:55:47;15.80;99.90
32660;DHT22;19064;47.912;12.308;2023-05-29T06:58:14;15.80;99.90
32660;DHT22;19064;47.912;12.308;2023-05-29T07:00:40;15.90;99.90
32660;DHT22;19064;47.912;12.308;2023-05-29T07:03:07;16.00;99.90
32660;DHT22;19064;47.912;12.308;2023-05-29T07:05:34;16.10;99.90
32660;DHT22;19064;47.912;12.308;2023-05-29T07:08:01;16.10;99.90
32660;DHT22;19064;47.912;12.308;2023-05-29T07:10:29;16.20;99.90
32660;DHT22;19064;47.912;12.308;2023-05-29T07:12:56;16.40;99.90
32660;DHT22;19064;47.912;12.308;2023-05-29T07:15:22;16.50;99.90
32660;DHT22;19064;47.912;12.308;2023-05-29T07:17:49;16.60;99.90
32660;DHT22;19064;47.912;12.308;2023-05-29T07:20:16;16.60;99.90
32660;DHT22;19064;47.912;12.308;2023-05-29T07:22:45;16.80;99.90
32660;DHT22;19064;47.912;12.308;2023-05-29T07:25:12;16.80;99.90
32660;DHT22;19064;47.912;12.308;2023-05-29T07:27:40;16.80;99.90
32660;DHT22;19064;47.912;12.308;2023-05-29T07:30:07;17.00;99.90
32660;DHT22;19064;47.912;12.308;2023-05-29T07:32:34;16.90;99.90
32660;DHT22;19064;47.912;12.308;2023-05-29T07:35:01;16.90;99.90
32660;DHT22;19064;47.912;12.308;2023-05-29T07:37:28;17.00;99.90
32660;DHT22;19064;47.912;12.308;2023-05-29T07:39:55;17.20;99.90
32660;DHT22;19064;47.912;12.308;2023-05-29T07:42:22;17.30;99.90
32660;DHT22;19064;47.912;12.308;2023-05-29T07:44:50;17.50;99.90
32660;DHT22;19064;47.912;12.308;2023-05-29T07:47:17;17.40;99.90
32660;DHT22;19064;47.912;12.308;2023-05-29T07:49:44;17.40;99.90
32660;DHT22;19064;47.912;12.308;2023-05-29T07:52:11;17.50;99.90
32660;DHT22;19064;47.912;12.308;2023-05-29T07:54:37;17.70;99.90
32660;DHT22;19064;47.912;12.308;2023-05-29T07:57:04;17.80;99.90
32660;DHT22;19064;47.912;12.308;2023-05-29T07:59:35;17.80;99.90
32660;DHT22;19064;47.912;12.308;2023-05-29T08:02:03;17.80;99.90
32660;DHT22;19064;47.912;12.308;2023-05-29T08:04:30;17.90;99.90
32660;DHT22;19064;47.912;12.308;2023-05-29T08:06:57;18.00;99.90
32660;DHT22;19064;47.912;12.308;2023-05-29T08:09:27;18.10;99.90
32660;DHT22;19064;47.912;12.308;2023-05-29T08:11:55;18.10;99.90
32660;DHT22;19064;47.912;12.308;2023-05-29T08:14:23;18.10;99.90
32660;DHT22;19064;47.912;12.308;2023-05-29T08:16:52;18.20;99.90
32660;DHT22;19064;47.912;12.308;2023-05-29T08:19:27;18.20;99.90
32660;DHT22;19064;47.912;12.308;2023-05-29T08:21:55;18.20;99.90
32660;DHT22;19064;47.912;12.308;2023-05-29T08:24:22;18.30;99.90
32660;DHT22;19064;47.912;12.308;2023-05-29T08:26:50;18.50;99.90
32660;DHT22;19064;47.912;12.308;2023-05-29T08:29:18;18.50;99.90
32660;DHT22;19064;47.912;12.308;2023-05-29T08:31:46;18.60;99.90
32660;DHT22;19064;47.912;12.308;2023-05-29T08:34:14;18.60;99.90
32660;DHT22;19064;47.912;12.308;2023-05-29T08:36:42;18.60;99.90
32660;DHT22;19064;47.912;12.308;2023-05-29T08:39:12;18.70;99.90
32660;DHT22;19064;47.912;12.308;2023-05-29T08:41:47;18.80;99.90
32660;DHT22;19064;47.912;12.308;2023-05-29T08:44:21;18.90;99.90
32660;DHT22;19064;47.912;12.308;2023-05-29T08:46:52;18.90;99.90
32660;DHT22;19064;47.912;12.308;2023-05-29T08:49:22;18.80;99.90
32660;DHT22;19064;47.912;12.308;2023-05-29T08:52:02;18.80;99.90
32660;DHT22;19064;47.912;12.308;2023-05-29T08:54:31;18.90;99.90
32660;DHT22;19064;47.912;12.308;2023-05-29T08:57:00;18.90;99.90
32660;DHT22;19064;47.912;12.308;2023-05-29T08:59:32;19.10;99.90
32660;DHT22;19064;47.912;12.308;2023-05-29T09:02:00;19.30;99.90
32660;DHT22;19064;47.912;12.308;2023-05-29T09:04:28;19.40;99.90
32660;DHT22;19064;47.912;12.308;2023-05-29T09:06:59;19.40;99.90
32660;DHT22;19064;47.912;12.308;2023-05-29T09:09:27;19.40;99.90
32660;DHT22;19064;47.912;12.308;2023-05-29T09:11:56;19.40;99.90
32660;DHT22;19064;47.912;12.308;2023-05-29T09:14:35;19.50;99.90
32660;DHT22;19064;47.912;12.308;2023-05-29T09:17:02;19.60;99.90
32660;DHT22;19064;47.912;12.308;2023-05-29T09:19:29;19.70;99.90
32660;DHT22;19064;47.912;12.308;2023-05-29T09:22:06;19.80;99.90
32660;DHT22;19064;47.912;12.308;2023-05-29T09:24:34;20.00;99.90
32660;DHT22;19064;47.912;12.308;2023-05-29T09:27:02;20.10;99.90
32660;DHT22;19064;47.912;12.308;2023-05-29T09:29:31;20.00;99.90
32660;DHT22;19064;47.912;12.308;2023-05-29T09:32:00;20.00;99.90
32660;DHT22;19064;47.912;12.308;2023-05-29T09:34:31;20.00;99.90
32660;DHT22;19064;47.912;12.308;2023-05-29T09:37:06;20.00;99.90
32660;DHT22;19064;47.912;12.308;2023-05-29T09:39:45;20.10;99.90
32660;DHT22;19064;47.912;12.308;2023-05-29T09:42:13;20.10;99.90
32660;DHT22;19064;47.912;12.308;2023-05-29T09:44:42;20.10;99.90
32660;DHT22;19064;47.912;12.308;2023-05-29T09:47:14;20.20;99.90
32660;DHT22;19064;47.912;12.308;2023-05-29T09:49:43;20.20;99.90
32660;DHT22;19064;47.912;12.308;2023-05-29T09:52:14;20.30;99.90
32660;DHT22;19064;47.912;12.308;2023-05-29T09:54:43;20.30;99.90
32660;DHT22;19064;47.912;12.308;2023-05-29T09:57:13;20.40;99.90
32660;DHT22;19064;47.912;12.308;2023-05-29T09:59:41;20.40;99.90
32660;DHT22;19064;47.912;12.308;2023-05-29T10:02:11;20.60;99.90
32660;DHT22;19064;47.912;12.308;2023-05-29T10:04:39;20.70;99.90
32660;DHT22;19064;47.912;12.308;2023-05-29T10:07:10;20.70;99.90
32660;DHT22;19064;47.912;12.308;2023-05-29T10:09:44;20.80;99.40
32660;DHT22;19064;47.912;12.308;2023-05-29T10:12:20;20.80;99.90
32660;DHT22;19064;47.912;12.308;2023-05-29T10:14:49;20.90;99.30
32660;DHT22;19064;47.912;12.308;2023-05-29T10:17:23;20.90;99.50
32660;DHT22;19064;47.912;12.308;2023-05-29T10:19:52;21.00;99.50
32660;DHT22;19064;47.912;12.308;2023-05-29T10:22:20;21.00;98.30
32660;DHT22;19064;47.912;12.308;2023-05-29T10:24:52;21.00;98.40
32660;DHT22;19064;47.912;12.308;2023-05-29T10:27:20;20.90;98.50
32660;DHT22;19064;47.912;12.308;2023-05-29T10:29:50;20.90;97.20
32660;DHT22;19064;47.912;12.308;2023-05-29T10:32:27;20.90;98.60
32660;DHT22;19064;47.912;12.308;2023-05-29T10:35:00;21.00;98.50
32660;DHT22;19064;47.912;12.308;2023-05-29T10:37:35;21.20;99.20
32660;DHT22;19064;47.912;12.308;2023-05-29T10:40:08;21.20;97.60
32660;DHT22;19064;47.912;12.308;2023-05-29T10:42:48;21.20;96.70
32660;DHT22;19064;47.912;12.308;2023-05-29T10:45:48;21.30;97.40
32660;DHT22;19064;47.912;12.308;2023-05-29T10:48:41;21.40;97.00
32660;DHT22;19064;47.912;12.308;2023-05-29T10:51:25;21.60;96.50
32660;DHT22;19064;47.912;12.308;2023-05-29T10:53:54;21.60;96.70
32660;DHT22;19064;47.912;12.308;2023-05-29T10:56:29;21.70;96.90
32660;DHT22;19064;47.912;12.308;2023-05-29T10:58:59;21.80;96.50
32660;DHT22;19064;47.912;12.308;2023-05-29T11:01:29;21.80;96.00
32660;DHT22;19064;47.912;12.308;2023-05-29T11:04:31;22.00;96.00
32660;DHT22;19064;47.912;12.308;2023-05-29T11:07:01;21.80;96.60
32660;DHT22;19064;47.912;12.308;2023-05-29T11:09:35;21.90;96.40
32660;DHT22;19064;47.912;12.308;2023-05-29T11:12:22;22.00;96.10
32660;DHT22;19064;47.912;12.308;2023-05-29T11:15:03;22.00;97.00
32660;DHT22;19064;47.912;12.308;2023-05-29T11:17:32;22.00;94.80
32660;DHT22;19064;47.912;12.308;2023-05-29T11:20:04;22.20;96.60
32660;DHT22;19064;47.912;12.308;2023-05-29T11:22:45;22.20;96.50
32660;DHT22;19064;47.912;12.308;2023-05-29T11:25:19;22.30;96.10
32660;DHT22;19064;47.912;12.308;2023-05-29T11:27:50;22.30;95.30
32660;DHT22;19064;47.912;12.308;2023-05-29T11:30:19;22.40;94.80
32660;DHT22;19064;47.912;12.308;2023-05-29T11:32:50;22.50;95.60
32660;DHT22;19064;47.912;12.308;2023-05-29T11:35:21;22.50;94.00
32660;DHT22;19064;47.912;12.308;2023-05-29T11:37:50;22.40;94.30
32660;DHT22;19064;47.912;12.308;2023-05-29T11:40:18;22.30;94.60
32660;DHT22;19064;47.912;12.308;2023-05-29T11:42:46;22.40;94.80
32660;DHT22;19064;47.912;12.308;2023-05-29T11:45:18;22.40;94.60
32660;DHT22;19064;47.912;12.308;2023-05-29T11:47:53;22.30;93.50
32660;DHT22;19064;47.912;12.308;2023-05-29T11:50:22;22.20;94.40
32660;DHT22;19064;47.912;12.308;2023-05-29T11:52:51;22.30;94.30
32660;DHT22;19064;47.912;12.308;2023-05-29T11:55:20;22.30;94.50
32660;DHT22;19064;47.912;12.308;2023-05-29T11:57:49;22.20;93.80
32660;DHT22;19064;47.912;12.308;2023-05-29T12:00:19;22.20;95.90
32660;DHT22;19064;47.912;12.308;2023-05-29T12:02:50;22.20;95.10
32660;DHT22;19064;47.912;12.308;2023-05-29T12:05:18;22.10;94.00
32660;DHT22;19064;47.912;12.308;2023-05-29T12:07:51;22.00;94.20
32660;DHT22;19064;47.912;12.308;2023-05-29T12:10:20;21.90;94.80
32660;DHT22;19064;47.912;12.308;2023-05-29T12:12:51;22.00;94.30
32660;DHT22;19064;47.912;12.308;2023-05-29T12:15:20;22.00;95.50
32660;DHT22;19064;47.912;12.308;2023-05-29T12:17:48;22.20;95.60
32660;DHT22;19064;47.912;12.308;2023-05-29T12:20:17;22.30;94.50
32660;DHT22;19064;47.912;12.308;2023-05-29T12:22:45;22.20;94.90
32660;DHT22;19064;47.912;12.308;2023-05-29T12:25:15;22.30;95.20
32660;DHT22;19064;47.912;12.308;2023-05-29T12:27:44;22.30;95.10
32660;DHT22;19064;47.912;12.308;2023-05-29T12:30:14;22.30;94.90
32660;DHT22;19064;47.912;12.308;2023-05-29T12:32:48;22.30;93.80
32660;DHT22;19064;47.912;12.308;2023-05-29T12:35:17;22.30;94.00
32660;DHT22;19064;47.912;12.308;2023-05-29T12:37:49;22.20;93.80
32660;DHT22;19064;47.912;12.308;2023-05-29T12:40:27;22.10;93.50
32660;DHT22;19064;47.912;12.308;2023-05-29T12:43:11;22.10;93.10
32660;DHT22;19064;47.912;12.308;2023-05-29T12:45:38;22.20;92.00
32660;DHT22;19064;47.912;12.308;2023-05-29T12:48:07;22.20;92.20
32660;DHT22;19064;47.912;12.308;2023-05-29T12:50:37;22.20;92.60
32660;DHT22;19064;47.912;12.308;2023-05-29T12:53:05;22.20;92.00
32660;DHT22;19064;47.912;12.308;2023-05-29T12:55:33;22.20;92.50
32660;DHT22;19064;47.912;12.308;2023-05-29T12:58:02;22.30;92.10
32660;DHT22;19064;47.912;12.308;2023-05-29T13:00:29;22.30;91.20
32660;DHT22;19064;47.912;12.308;2023-05-29T13:02:56;22.30;92.90
32660;DHT22;19064;47.912;12.308;2023-05-29T13:05:25;22.40;92.70
32660;DHT22;19064;47.912;12.308;2023-05-29T13:07:52;22.30;91.60
32660;DHT22;19064;47.912;12.308;2023-05-29T13:10:19;22.20;91.20
32660;DHT22;19064;47.912;12.308;2023-05-29T13:12:48;22.20;90.60
32660;DHT22;19064;47.912;12.308;2023-05-29T13:15:19;22.10;90.60
32660;DHT22;19064;47.912;12.308;2023-05-29T13:17:46;22.10;91.20
32660;DHT22;19064;47.912;12.308;2023-05-29T13:20:13;22.20;91.20
32660;DHT22;19064;47.912;12.308;2023-05-29T13:22:42;22.20;92.10
32660;DHT22;19064;47.912;12.308;2023-05-29T13:25:12;22.20;92.40
32660;DHT22;19064;47.912;12.308;2023-05-29T13:27:41;22.20;92.50
32660;DHT22;19064;47.912;12.308;2023-05-29T13:30:09;22.20;92.00
32660;DHT22;19064;47.912;12.308;2023-05-29T13:32:36;22.20;92.70
32660;DHT22;19064;47.912;12.308;2023-05-29T13:35:03;22.20;91.40
32660;DHT22;19064;47.912;12.308;2023-05-29T13:37:30;22.20;93.00
32660;DHT22;19064;47.912;12.308;2023-05-29T13:39:58;22.30;92.50
32660;DHT22;19064;47.912;12.308;2023-05-29T13:42:25;22.40;93.30
32660;DHT22;19064;47.912;12.308;2023-05-29T13:44:53;22.40;92.80
32660;DHT22;19064;47.912;12.308;2023-05-29T13:47:19;22.30;91.90
32660;DHT22;19064;47.912;12.308;2023-05-29T13:49:46;22.20;91.80
32660;DHT22;19064;47.912;12.308;2023-05-29T13:52:13;22.20;91.90
32660;DHT22;19064;47.912;12.308;2023-05-29T13:54:41;22.20;91.60
32660;DHT22;19064;47.912;12.308;2023-05-29T13:57:10;22.20;91.40
32660;DHT22;19064;47.912;12.308;2023-05-29T13:59:37;22.20;91.70
32660;DHT22;19064;47.912;12.308;2023-05-29T14:02:04;22.30;92.30
32660;DHT22;19064;47.912;12.308;2023-05-29T14:04:31;22.30;91.70
32660;DHT22;19064;47.912;12.308;2023-05-29T14:07:02;22.40;92.20
32660;DHT22;19064;47.912;12.308;2023-05-29T14:09:30;22.40;90.70
32660;DHT22;19064;47.912;12.308;2023-05-29T14:11:59;22.40;91.20
32660;DHT22;19064;47.912;12.308;2023-05-29T14:14:29;22.50;91.90
32660;DHT22;19064;47.912;12.308;2023-05-29T14:16:57;22.40;90.90
32660;DHT22;19064;47.912;12.308;2023-05-29T14:19:25;22.40;90.70
32660;DHT22;19064;47.912;12.308;2023-05-29T14:21:53;22.40;91.00
32660;DHT22;19064;47.912;12.308;2023-05-29T14:24:21;22.50;91.30
32660;DHT22;19064;47.912;12.308;2023-05-29T14:26:50;22.60;91.70
32660;DHT22;19064;47.912;12.308;2023-05-29T14:29:18;22.60;90.40
32660;DHT22;19064;47.912;12.308;2023-05-29T14:31:47;22.60;91.10
32660;DHT22;19064;47.912;12.308;2023-05-29T14:34:14;22.50;89.20
32660;DHT22;19064;47.912;12.308;2023-05-29T14:36:41;22.50;88.20
32660;DHT22;19064;47.912;12.308;2023-05-29T14:39:12;22.40;88.80
32660;DHT22;19064;47.912;12.308;2023-05-29T14:41:39;22.40;88.50
32660;DHT22;19064;47.912;12.308;2023-05-29T14:44:08;22.30;85.60
32660;DHT22;19064;47.912;12.308;2023-05-29T14:46:37;22.30;87.80
32660;DHT22;19064;47.912;12.308;2023-05-29T14:49:05;22.50;90.10
32660;DHT22;19064;47.912;12.308;2023-05-29T14:51:32;22.50;86.80
32660;DHT22;19064;47.912;12.308;2023-05-29T14:53:59;22.50;87.90
32660;DHT22;19064;47.912;12.308;2023-05-29T14:56:26;22.50;89.00
32660;DHT22;19064;47.912;12.308;2023-05-29T14:58:53;22.50;87.80
32660;DHT22;19064;47.912;12.308;2023-05-29T15:01:21;22.40;84.50
32660;DHT22;19064;47.912;12.308;2023-05-29T15:03:49;22.30;82.30
32660;DHT22;19064;47.912;12.308;2023-05-29T15:06:20;22.30;83.10
32660;DHT22;19064;47.912;12.308;2023-05-29T15:08:48;22.30;85.90
32660;DHT22;19064;47.912;12.308;2023-05-29T15:11:16;22.30;85.00
32660;DHT22;19064;47.912;12.308;2023-05-29T15:13:45;22.20;84.10
32660;DHT22;19064;47.912;12.308;2023-05-29T15:16:14;22.20;85.90
32660;DHT22;19064;47.912;12.308;2023-05-29T15:18:43;22.20;86.30
32660;DHT22;19064;47.912;12.308;2023-05-29T15:21:26;22.30;85.50
32660;DHT22;19064;47.912;12.308;2023-05-29T15:23:54;22.30;84.30
32660;DHT22;19064;47.912;12.308;2023-05-29T15:26:22;22.40;85.00